createdAt,value
2023-05-23T00:05:46.628Z,17.7
2023-05-23T00:20:56.915Z,17.6
2023-05-23T00:36:07.116Z,17.4
2023-05-23T00:51:17.539Z,17.3
2023-05-23T01:06:27.560Z,17.1
2023-05-23T01:21:37.331Z,16.8
2023-05-23T01:36:46.915Z,16.5
2023-05-23T01:51:57.421Z,16.4
2023-05-23T02:07:07.552Z,16.3
2023-05-23T02:22:18.030Z,16.2
2023-05-23T02:37:27.650Z,16.1
2023-05-23T02:52:37.658Z,15.9
2023-05-23T03:07:47.478Z,15.7
2023-05-23T03:22:57.588Z,15.5
2023-05-23T03:38:09.150Z,15.4
2023-05-23T03:53:19.110Z,15.4
2023-05-23T04:08:29.375Z,15.3
2023-05-23T04:23:40.084Z,15.1
2023-05-23T04:38:50.510Z,15.1
2023-05-23T04:54:00.874Z,15
2023-05-23T05:09:11.804Z,14.9
2023-05-23T05:24:21.715Z,15.1
2023-05-23T05:39:31.670Z,14.8
2023-05-23T05:54:45.668Z,14.9
2023-05-23T06:09:56.248Z,15
2023-05-23T06:25:06.278Z,15.2
2023-05-23T06:40:16.595Z,15.3
2023-05-23T06:55:27.162Z,15.2
2023-05-23T07:10:37.180Z,15.1
2023-05-23T07:26:01.642Z,15
2023-05-23T07:41:13.512Z,14.9
2023-05-23T07:56:22.454Z,14.7
2023-05-23T08:11:32.573Z,14.6
2023-05-23T08:26:42.677Z,14.4
2023-05-23T08:41:52.412Z,14.2
2023-05-23T08:57:01.663Z,14.1
2023-05-23T09:12:11.275Z,13.9
2023-05-23T09:27:21.146Z,13.9
2023-05-23T09:42:30.471Z,13.8
2023-05-23T09:57:40.222Z,13.7
2023-05-23T10:12:49.447Z,13.6
2023-05-23T10:28:01.754Z,13.6
2023-05-23T10:43:14.373Z,13.5
2023-05-23T10:58:28.515Z,13.4
2023-05-23T11:13:40.396Z,13.2
2023-05-23T11:28:50.810Z,13.5
2023-05-23T11:44:00.194Z,13.6
2023-05-23T11:59:09.949Z,14.1
2023-05-23T12:14:19.839Z,14.4
2023-05-23T12:29:30.334Z,14.4
2023-05-23T12:44:45.966Z,15.2
2023-05-23T12:59:56.051Z,15.5
2023-05-23T13:15:05.753Z,16.1
2023-05-23T13:30:16.264Z,17.1
2023-05-23T13:45:26.927Z,17.7
2023-05-23T14:00:36.964Z,17.4
2023-05-23T14:15:47.038Z,17.5
2023-05-23T14:30:58.055Z,19
2023-05-23T14:46:07.858Z,18.5
2023-05-23T15:01:16.784Z,17.8
2023-05-23T15:16:26.953Z,17.4
2023-05-23T15:31:37.856Z,17.8
2023-05-23T15:46:47.475Z,16.9
2023-05-23T16:01:57.310Z,16.7
2023-05-23T16:17:07.225Z,17.1
2023-05-23T16:32:17.201Z,17.6
2023-05-23T16:47:26.765Z,17
2023-05-23T17:02:36.036Z,16.2
2023-05-23T17:17:46.000Z,15.8
2023-05-23T17:32:56.350Z,15.5
2023-05-23T17:48:05.770Z,15.1
2023-05-23T18:03:15.003Z,14.8
2023-05-23T18:18:24.784Z,14.7
2023-05-23T18:33:34.954Z,14.4
2023-05-23T18:48:45.552Z,14.1
2023-05-23T19:03:54.996Z,13.9
2023-05-23T19:19:05.251Z,13.5
2023-05-23T19:34:15.159Z,13.2
2023-05-23T19:49:24.836Z,12.9
2023-05-23T20:04:34.543Z,12.7
2023-05-23T20:19:45.907Z,12.2
2023-05-23T20:34:55.301Z,12
2023-05-23T20:50:04.869Z,11.8
2023-05-23T21:05:14.562Z,11.7
2023-05-23T21:20:23.809Z,11.6
2023-05-23T21:35:33.192Z,11.6
2023-05-23T21:50:43.990Z,11.4
2023-05-23T22:05:54.171Z,11.2
2023-05-23T22:21:03.708Z,11
2023-05-23T22:36:13.288Z,10.9
2023-05-23T22:51:22.567Z,10.7
2023-05-23T23:06:31.702Z,10.5
2023-05-23T23:21:41.281Z,10.4
2023-05-23T23:36:50.869Z,10.2
2023-05-23T23:52:00.297Z,10
